createdAt,value
2018-08-17T00:01:20.118Z,4.63
2018-08-17T00:04:23.743Z,4.40
2018-08-17T00:07:27.382Z,4.40
2018-08-17T00:10:31.000Z,4.67
2018-08-17T00:13:34.631Z,4.60
2018-08-17T00:16:38.603Z,4.07
2018-08-17T00:19:42.247Z,4.37
2018-08-17T00:22:45.878Z,4.77
2018-08-17T00:25:49.477Z,4.47
2018-08-17T00:28:53.072Z,4.27
2018-08-17T00:31:56.689Z,4.90
2018-08-17T00:35:00.323Z,4.57
2018-08-17T00:38:03.944Z,4.93
2018-08-17T00:41:07.543Z,4.50
2018-08-17T00:44:11.248Z,4.57
2018-08-17T00:47:14.850Z,4.47
2018-08-17T00:50:18.466Z,5.43
2018-08-17T00:53:22.090Z,4.77
2018-08-17T00:56:25.694Z,4.67
2018-08-17T00:59:29.323Z,4.83
2018-08-17T01:02:32.974Z,4.33
2018-08-17T01:05:36.594Z,4.60
2018-08-17T01:08:40.197Z,4.10
2018-08-17T01:11:43.810Z,4.90
2018-08-17T01:14:47.411Z,4.13
2018-08-17T01:17:51.027Z,4.70
2018-08-17T01:20:54.643Z,4.20
2018-08-17T01:23:58.450Z,4.77
2018-08-17T01:27:02.054Z,4.80
2018-08-17T01:30:06.327Z,4.70
2018-08-17T01:33:09.927Z,4.43
2018-08-17T01:36:13.562Z,4.77
2018-08-17T01:39:17.175Z,4.70
2018-08-17T01:42:20.795Z,4.50
2018-08-17T01:45:24.414Z,4.60
2018-08-17T01:48:28.039Z,4.63
2018-08-17T01:51:31.954Z,4.57
2018-08-17T01:54:35.682Z,4.63
2018-08-17T01:57:39.622Z,4.37
2018-08-17T02:00:43.241Z,4.70
2018-08-17T02:03:46.858Z,4.50
2018-08-17T02:06:50.483Z,4.30
2018-08-17T02:09:54.167Z,4.57
2018-08-17T02:12:57.788Z,4.70
2018-08-17T02:16:01.396Z,4.27
2018-08-17T02:19:11.410Z,4.60
2018-08-17T02:22:15.012Z,4.47
2018-08-17T02:25:18.627Z,4.27
2018-08-17T02:28:22.232Z,4.30
2018-08-17T02:31:25.860Z,4.63
2018-08-17T02:34:29.470Z,5.00
2018-08-17T02:37:33.104Z,4.57
2018-08-17T02:40:36.711Z,4.60
2018-08-17T02:43:40.347Z,4.70
2018-08-17T02:46:44.000Z,4.90
2018-08-17T02:49:47.802Z,4.90
2018-08-17T02:52:51.422Z,4.50
2018-08-17T02:55:55.026Z,4.73
2018-08-17T02:58:58.647Z,5.10
2018-08-17T03:02:02.276Z,4.73
2018-08-17T03:05:05.902Z,5.20
2018-08-17T03:08:09.522Z,5.17
2018-08-17T03:11:13.114Z,5.30
2018-08-17T03:14:16.745Z,5.13
2018-08-17T03:17:20.361Z,5.00
2018-08-17T03:20:23.993Z,5.00
2018-08-17T03:23:27.642Z,5.20
2018-08-17T03:26:31.278Z,4.50
2018-08-17T03:29:34.875Z,5.00
2018-08-17T03:32:38.494Z,5.00
2018-08-17T03:35:42.095Z,5.03
2018-08-17T03:38:45.942Z,4.80
2018-08-17T03:41:49.557Z,4.70
2018-08-17T03:44:53.169Z,4.80
2018-08-17T03:47:56.774Z,5.20
2018-08-17T03:51:00.381Z,5.07
2018-08-17T03:54:03.998Z,5.33
2018-08-17T03:57:07.609Z,5.03
2018-08-17T04:00:11.763Z,5.47
2018-08-17T04:03:15.401Z,4.80
2018-08-17T04:06:19.020Z,5.33
2018-08-17T04:09:22.612Z,5.00
2018-08-17T04:12:26.252Z,4.87
2018-08-17T04:15:30.034Z,5.27
2018-08-17T04:18:33.558Z,5.43
2018-08-17T04:21:37.158Z,5.23
2018-08-17T04:24:40.773Z,5.13
2018-08-17T04:27:44.366Z,5.50
2018-08-17T04:30:47.983Z,5.83
2018-08-17T04:33:51.577Z,4.90
2018-08-17T04:36:55.201Z,5.30
2018-08-17T04:39:58.840Z,5.57
2018-08-17T04:43:02.458Z,5.50
2018-08-17T04:46:06.078Z,5.10
2018-08-17T04:49:09.716Z,5.57
2018-08-17T04:52:13.300Z,4.83
2018-08-17T04:55:16.905Z,5.10
2018-08-17T04:58:20.602Z,5.03
2018-08-17T05:01:24.222Z,5.47
2018-08-17T05:04:27.869Z,5.53
2018-08-17T05:07:31.470Z,5.33
2018-08-17T05:10:35.094Z,4.67
2018-08-17T05:13:38.699Z,4.50
2018-08-17T05:16:42.315Z,4.95
2018-08-17T05:19:45.913Z,4.90
2018-08-17T05:22:49.538Z,4.92
2018-08-17T05:25:53.162Z,4.70
2018-08-17T05:28:56.794Z,4.17
2018-08-17T05:32:00.600Z,4.12
2018-08-17T05:35:05.344Z,4.47
2018-08-17T05:38:08.957Z,4.62
2018-08-17T05:41:12.579Z,4.28
2018-08-17T05:44:16.190Z,4.50
2018-08-17T05:47:19.950Z,4.33
2018-08-17T05:50:23.557Z,4.17
2018-08-17T05:53:27.181Z,3.92
2018-08-17T05:56:30.827Z,4.20
2018-08-17T05:59:34.462Z,3.98
2018-08-17T06:02:38.061Z,4.08
2018-08-17T06:05:41.727Z,3.98
2018-08-17T06:08:45.398Z,4.30
2018-08-17T06:11:49.018Z,4.30
2018-08-17T06:14:52.605Z,4.28
2018-08-17T06:17:56.247Z,4.28
2018-08-17T06:20:59.857Z,3.80
2018-08-17T06:24:03.498Z,3.92
2018-08-17T06:27:07.110Z,4.42
2018-08-17T06:30:12.150Z,4.58
2018-08-17T06:33:15.754Z,4.40
2018-08-17T06:36:19.377Z,4.08
2018-08-17T06:42:48.793Z,3.92
2018-08-17T06:45:52.454Z,4.35
2018-08-17T06:48:56.077Z,3.87
2018-08-17T06:51:59.700Z,3.92
2018-08-17T06:55:03.334Z,4.03
2018-08-17T06:58:06.937Z,4.15
2018-08-17T07:01:10.570Z,4.42
2018-08-17T07:04:14.173Z,5.10
2018-08-17T07:07:17.965Z,3.45
2018-08-17T07:10:21.601Z,3.72
2018-08-17T07:13:25.258Z,4.17
2018-08-17T07:16:29.048Z,3.45
2018-08-17T07:19:32.625Z,3.92
2018-08-17T07:22:36.226Z,3.58
2018-08-17T07:25:39.949Z,4.03
2018-08-17T07:28:43.585Z,3.55
2018-08-17T07:31:47.200Z,3.50
2018-08-17T07:34:57.466Z,3.58
2018-08-17T07:38:01.081Z,4.35
2018-08-17T07:41:04.708Z,3.35
2018-08-17T07:44:08.433Z,3.92
2018-08-17T07:47:12.058Z,3.65
2018-08-17T07:50:16.794Z,3.30
2018-08-17T07:53:20.480Z,3.77
2018-08-17T07:56:24.102Z,3.60
2018-08-17T07:59:27.739Z,4.50
2018-08-17T08:02:31.370Z,3.47
2018-08-17T08:05:35.005Z,3.58
2018-08-17T08:08:38.693Z,4.37
2018-08-17T08:11:42.375Z,3.77
2018-08-17T08:14:46.005Z,3.60
2018-08-17T08:17:49.611Z,3.87
2018-08-17T08:20:53.239Z,3.05
2018-08-17T08:23:56.848Z,3.17
2018-08-17T08:27:00.462Z,4.15
2018-08-17T08:30:04.363Z,4.00
2018-08-17T08:33:08.013Z,4.05
2018-08-17T08:36:11.598Z,3.10
2018-08-17T08:39:15.237Z,3.60
2018-08-17T08:42:18.940Z,3.22
2018-08-17T08:45:22.672Z,3.70
2018-08-17T08:48:26.241Z,3.30
2018-08-17T08:51:30.026Z,3.25
2018-08-17T08:54:33.677Z,3.87
2018-08-17T08:57:37.767Z,3.85
2018-08-17T09:00:41.378Z,3.50
2018-08-17T09:03:45.039Z,3.42
2018-08-17T09:06:48.634Z,4.15
2018-08-17T09:09:52.302Z,4.47
2018-08-17T09:12:55.930Z,3.50
2018-08-17T09:15:59.606Z,4.12
2018-08-17T09:19:03.465Z,3.25
2018-08-17T09:22:07.140Z,3.67
2018-08-17T09:25:10.926Z,3.95
2018-08-17T09:28:14.557Z,3.83
2018-08-17T09:31:18.181Z,4.20
2018-08-17T09:34:22.605Z,3.65
2018-08-17T09:37:26.297Z,3.30
2018-08-17T09:40:29.977Z,3.15
2018-08-17T09:43:33.727Z,3.70
2018-08-17T09:46:38.373Z,4.12
2018-08-17T09:49:41.988Z,3.50
2018-08-17T09:52:45.698Z,3.52
2018-08-17T09:55:49.302Z,3.42
2018-08-17T09:58:52.965Z,3.20
2018-08-17T10:02:01.990Z,3.45
2018-08-17T10:05:41.331Z,3.40
2018-08-17T10:08:50.392Z,3.47
2018-08-17T10:11:54.010Z,3.45
2018-08-17T10:14:57.613Z,3.42
2018-08-17T10:18:01.255Z,3.40
2018-08-17T10:21:04.984Z,3.52
2018-08-17T10:24:08.489Z,3.40
2018-08-17T10:27:12.106Z,3.10
2018-08-17T10:30:16.105Z,3.35
2018-08-17T10:33:19.737Z,3.70
2018-08-17T10:36:23.402Z,3.40
2018-08-17T10:39:27.104Z,3.37
2018-08-17T10:42:30.930Z,3.20
2018-08-17T10:45:34.814Z,3.42
2018-08-17T10:48:38.459Z,3.42
2018-08-17T10:51:42.077Z,4.30
2018-08-17T10:54:45.698Z,3.30
2018-08-17T10:57:49.307Z,3.58
2018-08-17T11:00:52.944Z,3.52
2018-08-17T11:03:56.586Z,3.55
2018-08-17T11:07:00.349Z,3.12
2018-08-17T11:10:04.078Z,3.62
2018-08-17T11:13:07.715Z,3.98
2018-08-17T11:16:11.331Z,4.17
2018-08-17T11:19:14.945Z,3.90
2018-08-17T11:22:18.588Z,3.50
2018-08-17T11:25:22.204Z,3.58
2018-08-17T11:28:25.859Z,3.08
2018-08-17T11:31:29.567Z,3.65
2018-08-17T11:34:33.139Z,3.25
2018-08-17T11:37:36.960Z,3.65
2018-08-17T11:40:40.559Z,3.42
2018-08-17T11:43:44.186Z,3.30
2018-08-17T11:46:47.829Z,4.00
2018-08-17T11:49:51.429Z,3.47
2018-08-17T11:52:58.110Z,3.85
2018-08-17T11:56:01.751Z,3.52
2018-08-17T11:59:05.363Z,3.10
2018-08-17T12:02:09.006Z,3.20
2018-08-17T12:05:12.706Z,3.02
2018-08-17T12:08:16.422Z,3.77
2018-08-17T12:11:19.920Z,2.87
2018-08-17T12:14:23.654Z,3.98
2018-08-17T12:17:27.258Z,3.80
2018-08-17T12:20:30.901Z,4.50
2018-08-17T12:23:34.605Z,4.60
2018-08-17T12:26:43.937Z,3.20
2018-08-17T12:29:47.567Z,4.05
2018-08-17T12:32:51.201Z,3.80
2018-08-17T12:35:54.907Z,3.90
2018-08-17T12:38:58.541Z,3.33
2018-08-17T12:42:02.321Z,3.80
2018-08-17T12:45:11.355Z,3.52
2018-08-17T12:48:15.853Z,4.03
2018-08-17T12:51:19.471Z,3.85
2018-08-17T12:54:28.250Z,3.17
2018-08-17T12:57:37.242Z,3.65
2018-08-17T13:00:40.874Z,3.35
2018-08-17T13:03:44.509Z,3.75
2018-08-17T13:06:48.120Z,5.17
2018-08-17T13:09:53.525Z,4.10
2018-08-17T13:13:02.381Z,4.92
2018-08-17T13:16:07.982Z,3.95
2018-08-17T13:19:11.580Z,3.90
2018-08-17T13:22:15.189Z,4.33
2018-08-17T13:25:18.977Z,3.37
2018-08-17T13:28:22.614Z,3.70
2018-08-17T13:31:26.476Z,4.20
2018-08-17T13:34:30.114Z,4.00
2018-08-17T13:37:33.776Z,4.00
2018-08-17T13:40:37.395Z,3.55
2018-08-17T13:43:41.093Z,4.00
2018-08-17T13:46:44.722Z,4.05
2018-08-17T13:49:48.313Z,4.45
2018-08-17T13:52:51.950Z,4.10
2018-08-17T13:55:55.613Z,4.42
2018-08-17T13:58:59.236Z,3.95
2018-08-17T14:02:02.896Z,3.65
2018-08-17T14:05:07.366Z,3.52
2018-08-17T14:08:10.970Z,5.50
2018-08-17T14:11:14.578Z,3.83
2018-08-17T14:14:18.181Z,4.15
2018-08-17T14:17:21.838Z,4.00
2018-08-17T14:20:25.437Z,4.37
2018-08-17T14:23:29.091Z,3.67
2018-08-17T14:26:32.705Z,3.02
2018-08-17T14:29:36.408Z,4.00
2018-08-17T14:32:40.167Z,5.03
2018-08-17T14:35:43.784Z,3.55
2018-08-17T14:38:47.391Z,3.52
2018-08-17T14:41:56.179Z,3.87
2018-08-17T14:44:59.794Z,5.58
2018-08-17T14:48:03.434Z,4.30
2018-08-17T14:51:07.074Z,5.12
2018-08-17T14:54:10.690Z,4.03
2018-08-17T14:57:14.466Z,4.40
2018-08-17T15:00:18.903Z,3.60
2018-08-17T15:03:22.631Z,5.65
2018-08-17T15:06:26.287Z,3.80
2018-08-17T15:09:29.889Z,4.37
2018-08-17T15:12:33.531Z,3.62
2018-08-17T15:15:37.113Z,4.47
2018-08-17T15:18:40.747Z,3.85
2018-08-17T15:21:44.342Z,3.77
2018-08-17T15:24:47.974Z,4.80
2018-08-17T15:27:51.569Z,4.15
2018-08-17T15:30:55.219Z,4.62
2018-08-17T15:33:58.813Z,5.10
2018-08-17T15:37:02.691Z,4.37
2018-08-17T15:40:07.987Z,5.33
2018-08-17T15:43:16.859Z,5.60
2018-08-17T15:46:20.554Z,4.90
2018-08-17T15:49:30.445Z,5.47
2018-08-17T15:52:34.037Z,4.90
2018-08-17T15:55:37.685Z,5.30
2018-08-17T15:58:41.285Z,6.05
2018-08-17T16:01:44.993Z,4.67
2018-08-17T16:04:48.740Z,5.85
2018-08-17T16:07:52.320Z,5.20
2018-08-17T16:10:55.947Z,5.05
2018-08-17T16:13:59.600Z,5.40
2018-08-17T16:17:03.236Z,5.12
2018-08-17T16:20:08.166Z,5.40
2018-08-17T16:23:11.748Z,6.00
2018-08-17T16:26:15.376Z,5.58
2018-08-17T16:29:18.990Z,5.53
2018-08-17T16:32:22.630Z,5.75
2018-08-17T16:35:26.258Z,6.35
2018-08-17T16:38:29.912Z,5.72
2018-08-17T16:41:33.538Z,5.15
2018-08-17T16:44:37.145Z,5.78
2018-08-17T16:47:40.799Z,5.50
2018-08-17T16:50:44.380Z,5.65
2018-08-17T16:53:48.038Z,6.17
2018-08-17T16:56:51.683Z,5.90
2018-08-17T16:59:55.344Z,5.70
2018-08-17T17:02:58.950Z,6.92
2018-08-17T17:06:03.653Z,5.40
2018-08-17T17:09:08.011Z,5.67
2018-08-17T17:12:13.485Z,6.78
2018-08-17T17:15:20.117Z,7.05
2018-08-17T17:25:55.623Z,6.80
2018-08-17T17:28:59.266Z,8.00
2018-08-17T17:32:02.907Z,6.58
2018-08-17T17:35:06.534Z,6.80
2018-08-17T17:38:10.666Z,6.83
2018-08-17T17:41:14.297Z,6.50
2018-08-17T17:44:18.027Z,7.03
2018-08-17T17:47:21.694Z,6.55
2018-08-17T17:50:25.302Z,7.15
2018-08-17T17:53:28.994Z,6.40
2018-08-17T17:56:32.677Z,5.97
2018-08-17T17:59:43.050Z,6.35
2018-08-17T18:02:48.642Z,6.45
2018-08-17T18:05:52.327Z,6.60
2018-08-17T18:08:58.856Z,6.20
2018-08-17T18:12:02.501Z,5.67
2018-08-17T18:15:08.093Z,6.15
2018-08-17T18:18:12.059Z,6.50
2018-08-17T18:21:15.671Z,6.22
2018-08-17T18:24:19.306Z,6.00
2018-08-17T18:27:22.945Z,5.92
2018-08-17T18:30:26.631Z,6.00
2018-08-17T18:33:30.263Z,5.97
2018-08-17T18:36:33.900Z,5.90
2018-08-17T18:39:37.510Z,5.72
2018-08-17T18:42:41.148Z,5.12
2018-08-17T18:45:45.750Z,5.25
2018-08-17T18:56:21.264Z,5.17
2018-08-17T18:59:24.951Z,5.10
2018-08-17T19:02:28.550Z,4.75
2018-08-17T19:05:32.175Z,4.53
2018-08-17T19:08:35.798Z,5.58
2018-08-17T19:11:39.406Z,4.47
2018-08-17T19:14:45.373Z,5.75
2018-08-17T19:17:49.010Z,5.33
2018-08-17T19:20:52.678Z,5.30
2018-08-17T19:23:56.318Z,5.17
2018-08-17T19:26:59.965Z,4.60
2018-08-17T19:30:35.450Z,5.47
2018-08-17T19:33:39.097Z,9.73
2018-08-17T19:36:42.937Z,5.45
2018-08-17T19:39:47.278Z,5.12
2018-08-17T19:42:50.909Z,4.75
2018-08-17T19:45:54.632Z,4.08
2018-08-17T19:48:58.180Z,3.70
2018-08-17T19:52:01.815Z,7.58
2018-08-17T19:55:05.973Z,4.42
2018-08-17T19:58:09.694Z,3.70
2018-08-17T20:01:13.273Z,4.10
2018-08-17T20:04:16.890Z,4.60
2018-08-17T20:07:20.543Z,5.37
2018-08-17T20:10:24.187Z,4.95
2018-08-17T20:13:27.846Z,4.80
2018-08-17T20:16:31.458Z,5.00
2018-08-17T20:19:40.542Z,4.20
2018-08-17T20:22:44.283Z,4.20
2018-08-17T20:25:48.017Z,4.25
2018-08-17T20:28:51.526Z,5.05
2018-08-17T20:31:55.493Z,4.00
2018-08-17T20:34:59.094Z,5.08
2018-08-17T20:38:02.700Z,4.20
2018-08-17T20:41:06.351Z,5.05
2018-08-17T20:44:10.039Z,4.45
2018-08-17T20:47:13.654Z,3.80
2018-08-17T20:50:18.588Z,4.12
2018-08-17T20:53:22.204Z,3.90
2018-08-17T20:56:25.990Z,4.80
2018-08-17T20:59:29.785Z,4.20
2018-08-17T21:02:33.397Z,4.37
2018-08-17T21:05:37.037Z,5.00
2018-08-17T21:08:40.666Z,3.90
2018-08-17T21:11:44.342Z,4.67
2018-08-17T21:14:47.949Z,4.53
2018-08-17T21:17:51.574Z,4.22
2018-08-17T21:20:55.187Z,4.67
2018-08-17T21:23:58.824Z,3.83
2018-08-17T21:27:02.456Z,4.30
2018-08-17T21:30:06.495Z,4.20
2018-08-17T21:33:10.116Z,4.50
2018-08-17T21:36:13.733Z,4.58
2018-08-17T21:39:18.363Z,3.57
2018-08-17T21:42:22.014Z,3.87
2018-08-17T21:45:25.650Z,5.00
2018-08-17T21:48:29.278Z,4.47
2018-08-17T21:51:34.325Z,3.80
2018-08-17T21:54:37.973Z,3.90
2018-08-17T21:57:41.570Z,3.40
2018-08-17T22:00:45.202Z,3.47
2018-08-17T22:03:48.827Z,3.57
2018-08-17T22:06:52.449Z,3.30
2018-08-17T22:09:56.078Z,3.27
2018-08-17T22:12:59.713Z,3.20
2018-08-17T22:16:03.723Z,3.10
2018-08-17T22:19:07.456Z,3.57
2018-08-17T22:22:12.253Z,3.20
2018-08-17T22:25:17.350Z,2.90
2018-08-17T22:28:20.966Z,3.17
2018-08-17T22:31:36.346Z,3.50
2018-08-17T22:34:39.971Z,3.40
2018-08-17T22:37:43.635Z,3.43
2018-08-17T22:40:47.260Z,3.17
2018-08-17T22:43:50.869Z,3.20
2018-08-17T22:47:06.860Z,3.37
2018-08-17T22:50:10.479Z,3.27
2018-08-17T22:53:14.113Z,3.17
2018-08-17T22:56:17.718Z,3.87
2018-08-17T22:59:21.365Z,3.17
2018-08-17T23:02:24.998Z,3.03
2018-08-17T23:05:30.954Z,3.37
2018-08-17T23:08:34.589Z,3.23
2018-08-17T23:11:38.241Z,4.00
2018-08-17T23:14:41.891Z,2.93
2018-08-17T23:17:51.007Z,3.20
2018-08-17T23:20:54.617Z,4.13
2018-08-17T23:23:58.302Z,4.20
2018-08-17T23:27:02.048Z,4.60
2018-08-17T23:30:06.554Z,2.93
2018-08-17T23:33:10.475Z,2.40
2018-08-17T23:36:14.090Z,3.10
2018-08-17T23:39:17.713Z,2.80
2018-08-17T23:42:21.390Z,3.10
2018-08-17T23:45:25.008Z,3.37
2018-08-17T23:48:28.642Z,2.97
2018-08-17T23:51:32.267Z,3.20
2018-08-17T23:54:37.005Z,3.23
2018-08-17T23:57:40.674Z,2.60
